createdAt,value
2017-08-06T16:04:46.809Z,1021.4
2017-08-06T16:05:48.202Z,1021.3
2017-08-06T16:06:49.679Z,1021.3
2017-08-06T16:07:51.074Z,1021.2
2017-08-06T16:08:52.561Z,1021.2
2017-08-06T16:09:53.957Z,1021.2
2017-08-06T16:10:55.347Z,1021.4
2017-08-06T16:11:56.742Z,1021.4
2017-08-06T16:12:58.225Z,1021.3
2017-08-06T16:14:00.012Z,1021.4
2017-08-06T16:15:01.898Z,1021.3
2017-08-06T16:16:03.312Z,1021.3
2017-08-06T16:17:04.812Z,1021.3
2017-08-06T16:18:06.209Z,1021.3
2017-08-06T16:19:07.679Z,1021.3
2017-08-06T16:20:09.087Z,1021.3
2017-08-06T16:21:10.575Z,1021.3
2017-08-06T16:22:11.959Z,1021.3
2017-08-06T16:23:13.454Z,1021.3
2017-08-06T16:24:14.853Z,1021.3
2017-08-06T16:25:16.337Z,1021.3
2017-08-06T16:26:17.722Z,1021.3
2017-08-06T16:27:19.217Z,1021.3
2017-08-06T16:28:20.831Z,1021.3
2017-08-06T16:29:22.320Z,1021.3
2017-08-06T16:30:23.728Z,1021.2
2017-08-06T16:31:25.188Z,1021.2
2017-08-06T16:32:26.582Z,1021.3
2017-08-06T16:33:28.073Z,1021.2
2017-08-06T16:34:29.463Z,1021.2
2017-08-06T16:35:30.962Z,1021.2
2017-08-06T16:36:32.354Z,1021.2
2017-08-06T16:37:33.839Z,1021.2
2017-08-06T16:38:35.361Z,1021.1
2017-08-06T16:39:36.855Z,1021.1
2017-08-06T16:40:38.258Z,1021.2
2017-08-06T16:41:39.631Z,1021.1
2017-08-06T16:42:41.032Z,1021.2
2017-08-06T16:43:42.478Z,1021.2
2017-08-06T16:44:43.871Z,1021.2
2017-08-06T16:45:45.352Z,1021.1
2017-08-06T16:46:48.072Z,1021.1
2017-08-06T16:47:49.471Z,1021.1
2017-08-06T16:48:50.861Z,1021.1
2017-08-06T16:49:52.353Z,1021.1
2017-08-06T16:50:53.742Z,1021.1
2017-08-06T16:51:55.382Z,1021.1
2017-08-06T16:52:57.161Z,1021.1
2017-08-06T16:53:58.632Z,1021.1
2017-08-06T16:55:00.092Z,1021.1
2017-08-06T16:56:01.545Z,1021.0
2017-08-06T16:57:03.021Z,1021.0
2017-08-06T16:58:04.496Z,1021.0
2017-08-06T16:59:05.893Z,1021.1
2017-08-06T17:00:07.379Z,1021.1
2017-08-06T17:01:08.779Z,1021.1
2017-08-06T17:02:10.260Z,1021.1
2017-08-06T17:03:12.054Z,1021.1
2017-08-06T17:04:13.553Z,1021.1
2017-08-06T17:05:15.238Z,1021.1
2017-08-06T17:06:17.021Z,1021.0
2017-08-06T17:07:18.417Z,1021.0
2017-08-06T17:08:19.849Z,1021.0
2017-08-06T17:09:21.243Z,1021.0
2017-08-06T17:10:22.714Z,1021.1
2017-08-06T17:11:24.105Z,1021.1
2017-08-06T17:12:25.985Z,1021.1
2017-08-06T17:13:27.758Z,1021.1
2017-08-06T17:14:29.234Z,1021.1
2017-08-06T17:15:30.631Z,1021.1
2017-08-06T17:16:32.074Z,1021.0
2017-08-06T17:17:33.854Z,1021.0
2017-08-06T17:18:35.268Z,1021.1
2017-08-06T17:19:36.663Z,1021.1
2017-08-06T17:20:38.150Z,1021.1
2017-08-06T17:21:39.540Z,1021.0
2017-08-06T17:22:41.028Z,1021.0
2017-08-06T17:23:42.436Z,1021.1
2017-08-06T17:24:43.956Z,1021.1
2017-08-06T17:25:45.358Z,1021.1
2017-08-06T17:26:47.196Z,1021.1
2017-08-06T17:27:48.569Z,1021.1
2017-08-06T17:28:49.980Z,1021.1
2017-08-06T17:29:51.367Z,1021.1
2017-08-06T17:30:52.860Z,1021.1
2017-08-06T17:31:54.246Z,1021.1
2017-08-06T17:32:55.740Z,1021.1
2017-08-06T17:33:57.136Z,1021.1
2017-08-06T17:34:59.009Z,1021.1
2017-08-06T17:36:00.782Z,1021.1
2017-08-06T17:37:02.218Z,1021.1
2017-08-06T17:38:03.993Z,1021.1
2017-08-06T17:39:05.416Z,1021.2
2017-08-06T17:40:07.552Z,1021.2
2017-08-06T17:41:09.013Z,1021.2
2017-08-06T17:42:10.391Z,1021.1
2017-08-06T17:43:11.932Z,1021.1
2017-08-06T17:44:13.319Z,1021.1
2017-08-06T17:45:14.777Z,1021.1
2017-08-06T17:46:16.172Z,1021.1
2017-08-06T17:47:17.664Z,1021.0
2017-08-06T17:48:19.052Z,1021.0
2017-08-06T17:49:20.541Z,1021.0
2017-08-06T17:50:21.927Z,1021.0
2017-08-06T17:51:23.424Z,1021.0
2017-08-06T17:52:24.826Z,1021.0
2017-08-06T17:53:26.309Z,1021.0
2017-08-06T17:54:27.697Z,1021.0
2017-08-06T17:55:29.189Z,1021.0
2017-08-06T17:56:30.955Z,1021.0
2017-08-06T17:57:32.375Z,1021.0
2017-08-06T17:58:33.774Z,1021.0
2017-08-06T17:59:35.259Z,1021.0
2017-08-06T18:00:36.705Z,1021.0
2017-08-06T18:01:38.144Z,1021.0
2017-08-06T18:02:39.553Z,1021.0
2017-08-06T18:03:41.076Z,1020.9
2017-08-06T18:04:42.482Z,1021.0
2017-08-06T18:05:43.905Z,1020.9
2017-08-06T18:06:45.309Z,1020.9
2017-08-06T18:07:46.787Z,1021.0
2017-08-06T18:08:48.170Z,1020.9
2017-08-06T18:09:49.947Z,1021.0
2017-08-06T18:10:51.330Z,1021.0
2017-08-06T18:11:52.753Z,1021.0
2017-08-06T18:12:54.147Z,1021.0
2017-08-06T18:13:55.637Z,1021.0
2017-08-06T18:14:57.022Z,1020.9
2017-08-06T18:15:58.518Z,1020.9
2017-08-06T18:16:59.907Z,1020.9
2017-08-06T18:18:01.401Z,1020.9
2017-08-06T18:19:02.789Z,1020.9
2017-08-06T18:20:05.048Z,1020.9
2017-08-06T18:21:06.476Z,1020.9
2017-08-06T18:22:08.259Z,1020.9
2017-08-06T18:23:09.718Z,1020.9
2017-08-06T18:24:11.549Z,1020.9
2017-08-06T18:25:12.939Z,1020.8
2017-08-06T18:26:14.363Z,1020.8
2017-08-06T18:27:15.763Z,1020.9
2017-08-06T18:28:17.257Z,1020.9
2017-08-06T18:29:19.013Z,1020.9
2017-08-06T18:30:20.439Z,1020.9
2017-08-06T18:31:21.825Z,1020.9
2017-08-06T18:32:23.318Z,1020.9
2017-08-06T18:33:24.705Z,1020.9
2017-08-06T18:34:26.206Z,1021.0
2017-08-06T18:35:27.657Z,1021.0
2017-08-06T18:36:29.080Z,1021.0
2017-08-06T18:37:30.844Z,1020.9
2017-08-06T18:38:32.269Z,1020.9
2017-08-06T18:39:33.658Z,1020.9
2017-08-06T18:40:35.151Z,1020.9
2017-08-06T18:41:36.539Z,1020.9
2017-08-06T18:42:38.034Z,1020.9
2017-08-06T18:43:39.421Z,1020.9
2017-08-06T18:44:40.916Z,1020.9
2017-08-06T18:45:42.307Z,1021.0
2017-08-06T18:46:43.813Z,1021.0
2017-08-06T18:47:45.201Z,1021.0
2017-08-06T18:48:46.680Z,1021.0
2017-08-06T18:49:48.076Z,1021.0
2017-08-06T18:50:49.563Z,1021.0
2017-08-06T18:51:50.944Z,1021.0
2017-08-06T18:52:52.341Z,1021.0
2017-08-06T18:53:53.730Z,1021.0
2017-08-06T18:54:55.228Z,1021.1
2017-08-06T18:55:57.372Z,1021.0
2017-08-06T18:56:58.827Z,1021.1
2017-08-06T18:58:00.206Z,1021.1
2017-08-06T18:59:01.620Z,1021.1
2017-08-06T19:00:02.940Z,1021.1
2017-08-06T19:01:04.385Z,1021.1
2017-08-06T19:02:05.769Z,1021.1
2017-08-06T19:03:07.265Z,1021.1
2017-08-06T19:04:08.650Z,1021.1
2017-08-06T19:05:10.412Z,1021.1
2017-08-06T19:06:11.794Z,1021.1
2017-08-06T19:07:13.236Z,1021.1
2017-08-06T19:08:14.620Z,1021.1
2017-08-06T19:09:16.392Z,1021.1
2017-08-06T19:10:17.839Z,1021.1
2017-08-06T19:11:20.055Z,1021.1
2017-08-06T19:12:21.814Z,1021.1
2017-08-06T19:13:23.323Z,1021.1
2017-08-06T19:14:24.708Z,1021.2
2017-08-06T19:15:26.206Z,1021.2
2017-08-06T19:16:27.589Z,1021.2
2017-08-06T19:17:29.078Z,1021.2
2017-08-06T19:18:30.484Z,1021.2
2017-08-06T19:19:32.335Z,1021.2
2017-08-06T19:20:34.093Z,1021.2
2017-08-06T19:21:35.620Z,1021.2
2017-08-06T19:22:37.389Z,1021.2
2017-08-06T19:23:38.881Z,1021.2
2017-08-06T19:24:40.277Z,1021.2
2017-08-06T19:25:41.738Z,1021.2
2017-08-06T19:26:43.137Z,1021.2
2017-08-06T19:27:44.672Z,1021.2
2017-08-06T19:28:46.807Z,1021.3
2017-08-06T19:29:48.299Z,1021.3
2017-08-06T19:30:49.670Z,1021.3
2017-08-06T19:31:51.100Z,1021.3
2017-08-06T19:32:52.482Z,1021.3
2017-08-06T19:33:53.984Z,1021.3
2017-08-06T19:34:55.373Z,1021.3
2017-08-06T19:35:56.854Z,1021.3
2017-08-06T19:36:58.452Z,1021.3
2017-08-06T19:37:59.941Z,1021.3
2017-08-06T19:39:01.393Z,1021.3
2017-08-06T19:40:02.824Z,1021.3
2017-08-06T19:41:04.211Z,1021.3
2017-08-06T19:42:05.604Z,1021.3
2017-08-06T19:43:07.014Z,1021.3
2017-08-06T19:44:08.486Z,1021.3
2017-08-06T19:45:09.866Z,1021.3
2017-08-06T19:46:11.276Z,1021.3
2017-08-06T19:47:12.643Z,1021.4
2017-08-06T19:48:14.045Z,1021.3
2017-08-06T19:49:15.807Z,1021.3
2017-08-06T19:50:17.616Z,1021.3
2017-08-06T19:51:18.942Z,1021.3
2017-08-06T19:52:20.824Z,1021.3
2017-08-06T19:53:22.581Z,1021.3
2017-08-06T19:54:24.021Z,1021.3
2017-08-06T19:55:25.792Z,1021.3
2017-08-06T19:56:27.596Z,1021.3
2017-08-06T19:57:28.969Z,1021.3
2017-08-06T19:58:31.426Z,1021.3
2017-08-06T19:59:33.187Z,1021.3
2017-08-06T20:00:34.999Z,1021.3
2017-08-06T20:01:36.324Z,1021.3
2017-08-06T20:02:37.806Z,1021.3
2017-08-06T20:03:39.180Z,1021.3
2017-08-06T20:04:40.592Z,1021.3
2017-08-06T20:05:41.967Z,1021.3
2017-08-06T20:06:43.663Z,1021.3
2017-08-06T20:07:45.410Z,1021.3
2017-08-06T20:08:46.858Z,1021.3
2017-08-06T20:09:48.237Z,1021.4
2017-08-06T20:10:50.016Z,1021.3
2017-08-06T20:11:51.399Z,1021.4
2017-08-06T20:12:52.828Z,1021.3
2017-08-06T20:13:54.209Z,1021.3
2017-08-06T20:14:55.607Z,1021.3
2017-08-06T20:15:56.986Z,1021.3
2017-08-06T20:16:58.761Z,1021.3
2017-08-06T20:18:00.156Z,1021.3
2017-08-06T20:19:01.592Z,1021.3
2017-08-06T20:20:03.351Z,1021.3
2017-08-06T20:21:04.767Z,1021.3
2017-08-06T20:22:06.145Z,1021.3
2017-08-06T20:23:07.566Z,1021.3
2017-08-06T20:24:08.923Z,1021.3
2017-08-06T20:25:10.325Z,1021.3
2017-08-06T20:26:11.703Z,1021.3
2017-08-06T20:27:13.106Z,1021.3
2017-08-06T20:28:14.881Z,1021.3
2017-08-06T20:29:16.300Z,1021.3
2017-08-06T20:30:18.055Z,1021.3
2017-08-06T20:31:19.497Z,1021.3
2017-08-06T20:32:20.873Z,1021.3
2017-08-06T20:33:22.296Z,1021.3
2017-08-06T20:34:23.631Z,1021.3
2017-08-06T20:35:25.042Z,1021.4
2017-08-06T20:36:26.423Z,1021.3
2017-08-06T20:37:27.823Z,1021.3
2017-08-06T20:38:29.203Z,1021.3
2017-08-06T20:39:30.906Z,1021.3
2017-08-06T20:40:32.660Z,1021.4
2017-08-06T20:41:34.104Z,1021.4
2017-08-06T20:42:35.554Z,1021.3
2017-08-06T20:43:37.759Z,1021.4
2017-08-06T20:44:39.176Z,1021.4
2017-08-06T20:45:40.587Z,1021.4
2017-08-06T20:46:41.968Z,1021.4
2017-08-06T20:47:43.368Z,1021.4
2017-08-06T20:48:44.746Z,1021.4
2017-08-06T20:49:46.241Z,1021.3
2017-08-06T20:50:47.623Z,1021.3
2017-08-06T20:51:49.037Z,1021.3
2017-08-06T20:52:50.410Z,1021.3
2017-08-06T20:53:52.828Z,1021.3
2017-08-06T20:54:54.208Z,1021.3
2017-08-06T20:55:55.604Z,1021.3
2017-08-06T20:56:56.988Z,1021.3
2017-08-06T20:57:58.390Z,1021.2
2017-08-06T20:58:59.761Z,1021.3
2017-08-06T21:00:01.553Z,1021.3
2017-08-06T21:01:02.922Z,1021.3
2017-08-06T21:02:04.354Z,1021.3
2017-08-06T21:03:05.746Z,1021.2
2017-08-06T21:04:07.134Z,1021.3
2017-08-06T21:05:09.268Z,1021.2
2017-08-06T21:06:11.112Z,1021.2
2017-08-06T21:07:12.488Z,1021.2
2017-08-06T21:08:14.944Z,1021.2
2017-08-06T21:09:16.656Z,1021.2
2017-08-06T21:10:18.132Z,1021.2
2017-08-06T21:11:19.501Z,1021.2
2017-08-06T21:12:21.292Z,1021.1
2017-08-06T21:13:22.669Z,1021.2
2017-08-06T21:14:24.103Z,1021.2
2017-08-06T21:15:25.476Z,1021.2
2017-08-06T21:16:26.881Z,1021.2
2017-08-06T21:17:28.249Z,1021.1
2017-08-06T21:18:30.046Z,1021.2
2017-08-06T21:19:31.798Z,1021.2
2017-08-06T21:20:33.259Z,1021.2
2017-08-06T21:21:34.635Z,1021.2
2017-08-06T21:22:36.426Z,1021.2
2017-08-06T21:23:37.801Z,1021.2
2017-08-06T21:24:39.228Z,1021.2
2017-08-06T21:25:40.608Z,1021.2
2017-08-06T21:26:42.417Z,1021.1
2017-08-06T21:27:43.795Z,1021.2
2017-08-06T21:28:45.203Z,1021.2
2017-08-06T21:29:46.578Z,1021.2
2017-08-06T21:30:47.978Z,1021.2
2017-08-06T21:31:49.360Z,1021.2
2017-08-06T21:32:50.760Z,1021.2
2017-08-06T21:33:52.136Z,1021.2
2017-08-06T21:34:53.538Z,1021.3
2017-08-06T21:35:54.906Z,1021.2
2017-08-06T21:36:56.317Z,1021.2
2017-08-06T21:37:58.077Z,1021.2
2017-08-06T21:38:59.507Z,1021.2
2017-08-06T21:40:00.884Z,1021.2
2017-08-06T21:41:02.285Z,1021.2
2017-08-06T21:42:03.662Z,1021.2
2017-08-06T21:43:05.068Z,1021.2
2017-08-06T21:44:06.444Z,1021.2
2017-08-06T21:45:08.228Z,1021.2
2017-08-06T21:46:09.981Z,1021.2
2017-08-06T21:47:11.449Z,1021.2
2017-08-06T21:48:12.844Z,1021.2
2017-08-06T21:49:14.338Z,1021.2
2017-08-06T21:50:15.716Z,1021.2
2017-08-06T21:51:17.107Z,1021.2
2017-08-06T21:52:18.877Z,1021.2
2017-08-06T21:53:20.293Z,1021.2
2017-08-06T21:54:21.961Z,1021.2
2017-08-06T21:55:23.378Z,1021.1
2017-08-06T21:56:25.082Z,1021.1
2017-08-06T21:57:26.856Z,1021.2
2017-08-06T21:58:28.520Z,1021.2
2017-08-06T21:59:30.354Z,1021.2
2017-08-06T22:00:31.729Z,1021.2
2017-08-06T22:01:33.154Z,1021.2
2017-08-06T22:02:34.534Z,1021.2
2017-08-06T22:03:35.935Z,1021.2
2017-08-06T22:04:37.312Z,1021.2
2017-08-06T22:05:39.099Z,1021.2
2017-08-06T22:06:41.199Z,1021.2
2017-08-06T22:07:42.617Z,1021.2
2017-08-06T22:08:43.996Z,1021.2
2017-08-06T22:09:45.399Z,1021.2
2017-08-06T22:10:47.541Z,1021.2
2017-08-06T22:11:48.994Z,1021.2
2017-08-06T22:12:50.370Z,1021.2
2017-08-06T22:13:51.780Z,1021.2
2017-08-06T22:14:53.154Z,1021.1
2017-08-06T22:15:54.569Z,1021.1
2017-08-06T22:16:55.946Z,1021.2
2017-08-06T22:17:57.347Z,1021.1
2017-08-06T22:18:59.100Z,1021.1
2017-08-06T22:20:00.920Z,1021.1
2017-08-06T22:21:03.070Z,1021.1
2017-08-06T22:22:04.566Z,1021.1
2017-08-06T22:23:06.315Z,1021.1
2017-08-06T22:24:07.724Z,1021.1
2017-08-06T22:25:09.109Z,1021.1
2017-08-06T22:26:10.507Z,1021.1
2017-08-06T22:27:12.362Z,1021.1
2017-08-06T22:28:13.797Z,1021.1
2017-08-06T22:29:15.173Z,1021.1
2017-08-06T22:30:16.577Z,1021.2
2017-08-06T22:31:17.961Z,1021.2
2017-08-06T22:32:19.360Z,1021.1
2017-08-06T22:33:20.738Z,1021.2
2017-08-06T22:34:22.138Z,1021.1
2017-08-06T22:35:23.515Z,1021.1
2017-08-06T22:36:25.293Z,1021.1
2017-08-06T22:37:26.681Z,1021.1
2017-08-06T22:38:28.395Z,1021.1
2017-08-06T22:39:29.771Z,1021.1
2017-08-06T22:40:31.193Z,1021.2
2017-08-06T22:41:32.572Z,1021.1
2017-08-06T22:42:33.971Z,1021.2
2017-08-06T22:43:35.352Z,1021.2
2017-08-06T22:44:37.032Z,1021.1
2017-08-06T22:45:38.410Z,1021.1
2017-08-06T22:46:39.842Z,1021.1
2017-08-06T22:47:41.605Z,1021.1
2017-08-06T22:48:43.027Z,1021.1
2017-08-06T22:49:44.787Z,1021.1
2017-08-06T22:50:46.215Z,1021.1
2017-08-06T22:51:47.595Z,1021.1
2017-08-06T22:52:48.996Z,1021.1
2017-08-06T22:53:50.371Z,1021.1
2017-08-06T22:54:51.774Z,1021.1
2017-08-06T22:55:53.153Z,1021.1
2017-08-06T22:56:54.581Z,1021.1
2017-08-06T22:57:55.944Z,1021.1
2017-08-06T22:58:57.465Z,1021.1
2017-08-06T22:59:58.841Z,1021.1
2017-08-06T23:01:00.317Z,1021.1
2017-08-06T23:02:01.706Z,1021.1
2017-08-06T23:03:03.109Z,1021.2
2017-08-06T23:04:04.483Z,1021.1
2017-08-06T23:05:05.879Z,1021.1
2017-08-06T23:06:07.265Z,1021.1
2017-08-06T23:07:08.647Z,1021.1
2017-08-06T23:08:10.028Z,1021.1
2017-08-06T23:09:11.437Z,1021.1
2017-08-06T23:10:12.815Z,1021.1
2017-08-06T23:11:14.215Z,1021.1
2017-08-06T23:12:15.567Z,1021.1
2017-08-06T23:13:16.998Z,1021.1
2017-08-06T23:14:18.373Z,1021.1
2017-08-06T23:15:19.776Z,1021.0
2017-08-06T23:16:21.155Z,1021.0
2017-08-06T23:17:22.556Z,1021.0
2017-08-06T23:18:24.310Z,1021.0
2017-08-06T23:19:25.749Z,1021.0
2017-08-06T23:20:27.129Z,1021.0
2017-08-06T23:21:28.527Z,1021.0
2017-08-06T23:22:29.903Z,1021.0
2017-08-06T23:23:31.370Z,1020.9
2017-08-06T23:24:32.749Z,1020.9
2017-08-06T23:25:34.195Z,1020.9
2017-08-06T23:26:35.995Z,1020.9
2017-08-06T23:27:37.858Z,1020.9
2017-08-06T23:28:39.615Z,1020.9
2017-08-06T23:29:41.078Z,1020.9
2017-08-06T23:30:42.814Z,1020.9
2017-08-06T23:31:44.267Z,1020.9
2017-08-06T23:32:45.639Z,1020.9
2017-08-06T23:33:47.046Z,1020.9
2017-08-06T23:34:48.422Z,1020.9
2017-08-06T23:35:49.827Z,1020.9
2017-08-06T23:36:51.203Z,1020.9
2017-08-06T23:37:52.612Z,1020.8
2017-08-06T23:38:53.980Z,1020.8
2017-08-06T23:39:55.402Z,1020.8
2017-08-06T23:40:56.773Z,1020.8
2017-08-06T23:41:58.543Z,1020.8
2017-08-06T23:42:59.918Z,1020.8
2017-08-06T23:44:01.348Z,1020.8
2017-08-06T23:45:02.676Z,1020.7
2017-08-06T23:46:04.134Z,1020.8
2017-08-06T23:47:05.910Z,1020.7
2017-08-06T23:48:07.323Z,1020.7
2017-08-06T23:49:08.702Z,1020.7
2017-08-06T23:50:10.102Z,1020.7
2017-08-06T23:51:11.481Z,1020.7
2017-08-06T23:52:13.257Z,1020.7
2017-08-06T23:53:15.007Z,1020.7
2017-08-06T23:54:16.486Z,1020.7
2017-08-06T23:55:17.855Z,1020.7
2017-08-06T23:56:19.264Z,1020.7
2017-08-06T23:57:20.636Z,1020.7
2017-08-06T23:58:22.421Z,1020.7
2017-08-06T23:59:23.795Z,1020.7
